Time;durP1;ratioP1;P1;durP2;ratioP2;P2;SDS_P1;SDS_P2;PMS_P1;PMS_P2;Temp;Humidity;BMP_temperature;BMP_pressure;BME280_temperature;BME280_humidity;BME280_pressure;Samples;Min_cycle;Max_cycle;Signal;HPM_P1;HPM_P2
2022/01/25 00:08:47;;;;;;;34.30;15.37;;;;;;;-7.89;75.02;96044.34;5093410;28;20587;-77
2022/01/25 00:25:30;;;;;;;53.53;21.50;;;;;;;-7.81;77.63;96049.84;5084994;28;20195;-79
2022/01/25 00:28:17;;;;;;;49.40;22.03;;;;;;;-7.78;77.22;96053.91;5070074;28;20280;-80
2022/01/25 00:30:59;;;;;;;51.97;21.17;;;;;;;-7.81;76.73;96059.91;5081624;28;20290;-80
2022/01/25 00:33:33;;;;;;;49.53;19.97;;;;;;;-7.78;77.29;96053.91;5071851;28;20239;-80
2022/01/25 00:36:02;;;;;;;47.77;20.83;;;;;;;-7.78;76.00;96053.91;5078209;28;20201;-81
2022/01/25 00:38:31;;;;;;;46.03;17.50;;;;;;;-7.78;75.58;96053.91;5092128;28;20201;-80
2022/01/25 00:41:01;;;;;;;39.77;17.40;;;;;;;-7.86;75.54;96050.94;5085179;28;20201;-80
2022/01/25 00:43:30;;;;;;;37.73;15.90;;;;;;;-7.88;74.37;96045.16;5083342;28;20208;-81
2022/01/25 00:46:01;;;;;;;35.30;15.60;;;;;;;-7.97;74.75;96048.13;5084025;28;20204;-81
2022/01/25 00:48:43;;;;;;;29.53;15.13;;;;;;;-7.96;75.44;96043.00;5075199;28;20197;-83
2022/01/25 00:54:02;;;;;;;39.77;16.13;;;;;;;-7.95;75.88;96042.09;5069850;28;20900;-81
2022/01/25 00:56:32;;;;;;;35.73;14.53;;;;;;;-7.89;75.43;96035.97;5076435;28;20657;-78
2022/01/25 00:59:02;;;;;;;37.67;16.00;;;;;;;-7.83;74.51;96036.50;5082765;28;20208;-77
2022/01/25 01:01:31;;;;;;;43.13;16.23;;;;;;;-7.81;74.36;96036.41;5089528;28;20223;-77
2022/01/25 01:04:02;;;;;;;36.20;15.73;;;;;;;-7.91;75.52;96030.19;5078260;28;20655;-77
2022/01/25 01:06:31;;;;;;;36.60;14.60;;;;;;;-7.84;75.21;96037.38;5089577;28;20188;-78
2022/01/25 01:08:59;;;;;;;36.93;14.33;;;;;;;-7.81;75.02;96033.88;5089983;28;20201;-75
2022/01/25 01:11:36;;;;;;;30.87;13.20;;;;;;;-7.93;74.97;96032.75;5081472;28;20301;-75
2022/01/25 01:14:14;;;;;;;30.90;13.10;;;;;;;-8.01;75.87;96027.25;5087010;28;20208;-74
2022/01/25 01:16:59;;;;;;;25.43;13.53;;;;;;;-8.06;76.14;96030.00;5088634;28;20206;-75
2022/01/25 01:30:44;;;;;;;28.97;13.43;;;;;;;-7.73;77.40;96026.75;5082912;28;20246;-75
2022/01/25 01:33:41;;;;;;;26.87;13.60;;;;;;;-7.93;76.44;96020.16;5082699;28;20265;-75
2022/01/25 01:41:57;;;;;;;30.03;12.80;;;;;;;-8.24;79.17;96014.91;5088554;28;20211;-78
2022/01/25 01:44:27;;;;;;;24.50;12.10;;;;;;;-8.24;80.28;96007.34;5085773;28;20538;-76
2022/01/25 01:47:04;;;;;;;27.63;12.47;;;;;;;-8.32;80.74;96014.50;5084426;28;20288;-78
2022/01/25 01:49:39;;;;;;;25.40;12.73;;;;;;;-8.30;81.45;96018.56;5089123;28;20196;-75
2022/01/25 01:52:13;;;;;;;25.30;12.27;;;;;;;-8.23;80.47;96014.88;5083217;28;20641;-77
2022/01/25 01:54:41;;;;;;;28.53;13.87;;;;;;;-8.17;80.28;96008.72;5088874;28;20223;-77
2022/01/25 01:57:10;;;;;;;28.20;13.77;;;;;;;-8.19;78.79;96005.44;5088825;28;20204;-77
2022/01/25 01:59:40;;;;;;;27.57;13.20;;;;;;;-8.18;78.72;96002.84;5088365;28;20208;-77
2022/01/25 02:02:13;;;;;;;26.37;12.73;;;;;;;-8.14;78.85;96004.31;5089120;28;20851;-76
2022/01/25 02:04:41;;;;;;;28.67;13.10;;;;;;;-8.15;77.55;96007.75;5089851;28;20262;-77
2022/01/25 02:07:11;;;;;;;30.07;13.70;;;;;;;-8.12;78.61;96005.09;5088665;28;20941;-75
2022/01/25 02:09:41;;;;;;;24.57;12.67;;;;;;;-8.15;79.42;96004.41;5088787;28;20204;-77
2022/01/25 02:12:10;;;;;;;25.47;11.40;;;;;;;-8.40;81.88;96002.25;5088915;28;20257;-76
2022/01/25 02:14:40;;;;;;;23.60;11.70;;;;;;;-8.64;85.64;95998.34;5089184;28;20235;-77
2022/01/25 02:17:23;;;;;;;19.27;10.50;;;;;;;-8.65;87.79;95996.69;5088197;28;20208;-76
2022/01/25 02:22:53;;;;;;;22.93;10.47;;;;;;;-8.85;90.49;95997.59;5089470;28;20203;-78
2022/01/25 02:25:21;;;;;;;18.37;10.27;;;;;;;-8.77;89.59;95985.47;5088726;28;20200;-77
2022/01/25 02:27:49;;;;;;;24.83;11.93;;;;;;;-8.75;89.20;95978.69;5081980;28;20294;-77
2022/01/25 02:30:18;;;;;;;22.87;11.90;;;;;;;-8.80;88.39;95979.78;5090031;28;20647;-77
2022/01/25 02:32:47;;;;;;;22.83;11.37;;;;;;;-8.99;91.06;95978.94;5089847;28;20208;-76
2022/01/25 02:35:17;;;;;;;19.77;10.53;;;;;;;-9.05;91.54;95979.22;5087012;28;20698;-77
2022/01/25 02:37:45;;;;;;;22.73;11.30;;;;;;;-9.11;91.85;95975.28;5088357;28;20208;-77
2022/01/25 02:40:13;;;;;;;24.93;11.20;;;;;;;-9.14;92.20;95974.56;5088877;28;20860;-77
2022/01/25 02:42:41;;;;;;;26.40;12.73;;;;;;;-9.12;92.65;95973.66;5089459;28;20196;-77
2022/01/25 02:45:15;;;;;;;28.20;13.13;;;;;;;-9.01;92.59;95968.97;5088574;28;20244;-77
2022/01/25 02:50:29;;;;;;;24.80;12.30;;;;;;;-8.87;93.22;95955.75;5088994;28;20211;-77
2022/01/25 02:52:59;;;;;;;25.93;12.73;;;;;;;-8.66;91.96;95970.69;5088547;28;20204;-77
2022/01/25 02:55:27;;;;;;;22.53;11.60;;;;;;;-8.56;92.51;95957.66;5082921;28;20347;-77
2022/01/25 02:57:56;;;;;;;22.53;11.13;;;;;;;-8.63;91.75;95939.53;5088172;28;20236;-77
2022/01/25 03:00:24;;;;;;;25.03;11.47;;;;;;;-8.45;91.12;95943.69;5078303;28;20346;-80
2022/01/25 03:02:53;;;;;;;24.53;11.37;;;;;;;-8.29;90.92;95956.41;5074548;28;20720;-80
2022/01/25 03:05:21;;;;;;;24.17;11.83;;;;;;;-8.19;90.53;95957.53;5054704;28;20714;-79
2022/01/25 03:07:51;;;;;;;24.30;11.43;;;;;;;-8.19;89.74;95952.50;5085774;28;20205;-80
2022/01/25 03:10:19;;;;;;;27.10;12.27;;;;;;;-8.07;88.64;95952.75;5073186;28;20239;-80
2022/01/25 03:12:52;;;;;;;25.30;12.07;;;;;;;-8.13;88.73;95953.03;5073921;28;20202;-79
2022/01/25 03:15:30;;;;;;;24.60;11.73;;;;;;;-8.01;87.74;95955.84;5082459;28;20220;-78
2022/01/25 03:18:07;;;;;;;20.57;11.07;;;;;;;-7.92;87.21;95950.38;5087398;28;20890;-79
2022/01/25 03:20:36;;;;;;;23.50;12.10;;;;;;;-7.87;86.45;95951.78;5084322;28;20207;-79
2022/01/25 03:23:17;;;;;;;23.43;11.60;;;;;;;-7.85;86.07;95939.09;5087647;28;20926;-76
2022/01/25 03:25:52;;;;;;;28.90;13.43;;;;;;;-7.85;85.24;95951.72;5084030;28;20610;-76
2022/01/25 03:28:21;;;;;;;30.57;14.37;;;;;;;-7.76;84.22;95952.06;5078189;28;20192;-77
2022/01/25 03:30:50;;;;;;;33.97;15.03;;;;;;;-7.69;84.52;95948.34;5075640;28;20295;-76
2022/01/25 03:33:19;;;;;;;33.50;16.50;;;;;;;-7.64;83.99;95953.16;5071802;28;20703;-76
2022/01/25 03:35:47;;;;;;;34.53;15.73;;;;;;;-7.63;83.61;95950.56;5085562;28;20225;-76
2022/01/25 03:38:17;;;;;;;32.83;14.57;;;;;;;-7.60;83.13;95949.59;5091519;28;20216;-76
2022/01/25 03:40:47;;;;;;;29.20;12.77;;;;;;;-7.50;81.80;95953.28;5072950;28;20729;-80
2022/01/25 03:43:18;;;;;;;27.27;13.60;;;;;;;-7.52;80.98;95943.28;5073604;28;20211;-81
2022/01/25 03:45:58;;;;;;;39.53;18.10;;;;;;;-7.82;80.52;95931.38;5074609;28;20613;-80
2022/01/25 03:51:11;;;;;;;46.63;20.70;;;;;;;-8.21;80.93;95939.16;5078858;28;20654;-79
2022/01/25 03:53:41;;;;;;;52.97;22.20;;;;;;;-8.31;82.80;95932.97;5080007;28;20213;-78
2022/01/25 03:56:12;;;;;;;41.87;20.23;;;;;;;-8.28;82.20;95938.66;5071211;28;20290;-78
2022/01/25 03:58:40;;;;;;;29.53;15.20;;;;;;;-8.63;83.92;95928.63;5084295;28;20197;-78
2022/01/25 04:01:10;;;;;;;32.60;14.30;;;;;;;-8.97;85.00;95937.72;5085604;28;20263;-79
2022/01/25 04:03:44;;;;;;;31.00;14.53;;;;;;;-8.85;86.20;95932.13;5084455;28;20205;-79
2022/01/25 04:06:18;;;;;;;32.33;14.50;;;;;;;-8.83;84.85;95937.13;5072514;28;20197;-80
2022/01/25 04:08:50;;;;;;;32.37;14.57;;;;;;;-8.91;85.08;95937.44;5084420;28;20243;-83
2022/01/25 04:11:18;;;;;;;31.53;14.20;;;;;;;-9.09;87.33;95932.44;5080395;28;20584;-78
2022/01/25 04:13:48;;;;;;;32.50;14.43;;;;;;;-9.01;88.08;95940.44;5091139;28;20643;-77
2022/01/25 04:16:23;;;;;;;34.73;14.87;;;;;;;-9.05;87.16;95933.91;5090589;28;20225;-77
2022/01/25 04:18:59;;;;;;;37.10;17.17;;;;;;;-9.18;86.82;95922.78;5087792;28;20209;-77
2022/01/25 04:27:00;;;;;;;33.37;14.47;;;;;;;-9.63;89.46;95931.44;5091733;28;20195;-78
2022/01/25 04:29:29;;;;;;;34.67;14.70;;;;;;;-9.74;90.69;95930.25;5090592;28;20204;-76
2022/01/25 04:31:57;;;;;;;31.83;14.80;;;;;;;-9.69;91.47;95929.16;5090699;28;20568;-76
2022/01/25 04:34:39;;;;;;;29.03;13.47;;;;;;;-9.83;91.87;95917.19;5090319;28;20236;-76
2022/01/25 04:51:19;;;;;;;27.33;13.43;;;;;;;-10.05;97.16;95934.06;5089976;28;20265;-71
2022/01/25 04:53:55;;;;;;;25.43;11.60;;;;;;;-10.07;96.73;95929.97;5090024;28;20215;-71
2022/01/25 04:56:31;;;;;;;20.03;10.03;;;;;;;-10.05;97.61;95923.19;5090136;28;20710;-71
2022/01/25 04:59:05;;;;;;;28.57;12.57;;;;;;;-10.24;98.70;95922.34;5057010;28;20205;-72
2022/01/25 05:01:33;;;;;;;32.77;14.73;;;;;;;-10.28;100.00;95923.31;5069919;28;20257;-70
2022/01/25 05:04:06;;;;;;;32.83;14.00;;;;;;;-10.26;100.00;95916.53;5073666;28;20205;-70
2022/01/25 05:06:35;;;;;;;29.83;14.90;;;;;;;-10.28;100.00;95918.31;5086568;28;20193;-71
2022/01/25 05:09:09;;;;;;;31.23;14.90;;;;;;;-10.26;100.00;95916.53;5088795;28;20674;-70
2022/01/25 05:11:43;;;;;;;34.47;14.73;;;;;;;-10.28;100.00;95925.84;5089224;28;21031;-70
2022/01/25 05:14:24;;;;;;;38.93;15.53;;;;;;;-10.28;100.00;95925.84;5089018;28;20300;-71
2022/01/25 05:16:55;;;;;;;34.57;16.17;;;;;;;-10.26;100.00;95921.56;5082069;28;20197;-71
2022/01/25 05:22:04;;;;;;;35.57;15.37;;;;;;;-10.23;100.00;95926.47;5087617;28;20680;-71
2022/01/25 05:22:27;;;;;;;35.83;16.33;;;;;;;-10.18;100.00;95925.41;5087636;28;20207;-74
2022/01/25 05:24:56;;;;;;;50.70;21.30;;;;;;;-10.10;100.00;95925.06;5081204;28;20209;-71
2022/01/25 05:27:30;;;;;;;41.57;17.83;;;;;;;-10.09;99.31;95930.00;5087698;28;20197;-71
2022/01/25 05:29:57;;;;;;;37.90;16.40;;;;;;;-10.13;96.94;95920.19;5076620;28;20200;-71
2022/01/25 05:32:24;;;;;;;44.27;19.73;;;;;;;-10.15;98.01;95920.25;5073764;28;20200;-70
2022/01/25 05:34:52;;;;;;;45.60;20.33;;;;;;;-10.11;96.89;95919.22;5082246;28;20231;-72
2022/01/25 05:37:20;;;;;;;60.43;22.17;;;;;;;-10.04;97.95;95908.03;5079269;28;20205;-71
2022/01/25 05:39:49;;;;;;;38.67;16.43;;;;;;;-9.98;97.65;95907.78;5072811;28;20207;-71
2022/01/25 05:42:47;;;;;;;38.57;17.23;;;;;;;-9.91;96.99;95903.31;5067561;28;20342;-71
2022/01/25 05:45:36;;;;;;;32.13;12.43;;;;;;;-9.81;97.24;95899.50;5080924;28;20207;-71
2022/01/25 05:48:06;;;;;;;36.23;15.87;;;;;;;-9.78;96.77;95899.38;5072901;28;20197;-74
2022/01/25 05:50:34;;;;;;;31.50;12.03;;;;;;;-9.80;97.38;95901.16;5087831;28;20204;-74
2022/01/25 05:53:03;;;;;;;33.80;16.10;;;;;;;-9.77;97.18;95906.06;5080713;28;20303;-71
2022/01/25 05:55:31;;;;;;;28.00;11.53;;;;;;;-9.69;97.17;95898.19;5076741;28;20197;-71
2022/01/25 05:57:58;;;;;;;23.53;11.20;;;;;;;-9.70;96.54;95909.13;5081667;28;20242;-70
2022/01/25 06:00:28;;;;;;;30.37;12.00;;;;;;;-9.77;95.68;95913.59;5079251;28;20197;-70
2022/01/25 06:03:06;;;;;;;33.03;14.57;;;;;;;-9.83;95.75;95899.59;5084446;28;20200;-71
2022/01/25 06:05:36;;;;;;;32.20;14.97;;;;;;;-9.89;95.58;95924.16;5083569;28;20281;-73
2022/01/25 06:08:04;;;;;;;44.83;16.63;;;;;;;-9.86;96.84;95921.53;5081858;28;20384;-73
2022/01/25 06:10:33;;;;;;;40.70;16.97;;;;;;;-9.76;95.99;95920.28;5087764;28;20212;-73
2022/01/25 06:13:01;;;;;;;31.93;13.90;;;;;;;-9.64;94.76;95922.28;5087700;28;20212;-73
2022/01/25 06:15:31;;;;;;;53.97;21.03;;;;;;;-9.56;93.65;95921.94;5087656;28;20204;-73
2022/01/25 06:17:59;;;;;;;37.13;16.67;;;;;;;-9.52;92.83;95918.41;5081817;28;20192;-73
2022/01/25 06:20:28;;;;;;;43.90;19.83;;;;;;;-9.58;92.66;95904.38;5083790;28;20280;-73
2022/01/25 06:22:55;;;;;;;54.10;21.10;;;;;;;-9.51;91.64;95912.47;5085077;28;20205;-73
2022/01/25 06:25:22;;;;;;;54.33;22.20;;;;;;;-9.35;91.90;95926.81;5086321;28;20208;-74
2022/01/25 06:27:50;;;;;;;65.70;26.23;;;;;;;-9.29;90.73;95923.22;5087283;28;20204;-73
2022/01/25 06:30:19;;;;;;;61.27;25.37;;;;;;;-9.22;90.96;95920.38;5087950;28;20686;-74
2022/01/25 06:32:49;;;;;;;60.07;24.67;;;;;;;-9.23;89.49;95915.41;5087690;28;20215;-73
2022/01/25 06:35:17;;;;;;;68.83;28.13;;;;;;;-9.27;89.76;95916.44;5082804;28;21019;-73
2022/01/25 06:37:46;;;;;;;54.20;21.97;;;;;;;-9.23;88.44;95913.72;5088423;28;20316;-73
2022/01/25 06:40:16;;;;;;;56.60;24.80;;;;;;;-9.18;87.40;95907.69;5088729;28;20667;-75
2022/01/25 06:42:44;;;;;;;54.10;23.43;;;;;;;-9.13;86.87;95915.81;5089463;28;20225;-89
2022/01/25 06:45:17;;;;;;;55.37;23.33;;;;;;;-9.08;86.30;95919.75;5080611;28;20209;-89
2022/01/25 06:47:47;;;;;;;53.77;21.73;;;;;;;-9.03;86.77;95912.03;5083460;28;20201;-89
2022/01/25 06:50:19;;;;;;;59.80;23.27;;;;;;;-9.00;86.21;95910.16;5088430;28;20942;-89
2022/01/25 06:52:47;;;;;;;49.47;21.27;;;;;;;-8.98;85.57;95890.78;5075301;28;20189;-90
2022/01/25 06:55:31;;;;;;;45.20;21.17;;;;;;;-8.89;83.74;95887.84;5075076;28;20196;-91
2022/01/25 06:57:59;;;;;;;62.80;25.47;;;;;;;-8.99;85.47;95893.38;5086535;28;20644;-90
2022/01/25 07:00:49;;;;;;;54.40;22.67;;;;;;;-8.94;83.89;95881.38;5094643;28;20193;-89
2022/01/25 07:03:17;;;;;;;51.83;22.23;;;;;;;-9.26;84.64;95858.50;5094945;28;20634;-89
2022/01/25 07:05:46;;;;;;;51.80;23.47;;;;;;;-8.94;84.24;95899.00;5090406;28;20304;-89
2022/01/25 07:08:14;;;;;;;53.37;23.37;;;;;;;-9.00;82.93;95895.06;5079042;28;20257;-89
2022/01/25 07:10:42;;;;;;;69.60;27.33;;;;;;;-9.17;83.55;95837.13;5094344;28;20189;-90
2022/01/25 07:13:09;;;;;;;62.67;26.43;;;;;;;-8.68;82.62;95903.66;5079005;28;20300;-89
2022/01/25 07:15:38;;;;;;;69.80;28.97;;;;;;;-8.69;82.33;95891.97;5087787;28;20199;-90
2022/01/25 07:18:06;;;;;;;68.60;28.23;;;;;;;-8.59;83.51;95885.59;5103958;28;20204;-90
2022/01/25 07:20:34;;;;;;;61.70;27.63;;;;;;;-8.58;82.68;95886.41;5086851;28;20280;-91
2022/01/25 07:23:04;;;;;;;63.40;24.77;;;;;;;-8.59;82.54;95880.56;5086174;28;20231;-87
2022/01/25 07:25:33;;;;;;;74.17;27.83;;;;;;;-8.53;83.08;95881.97;5095575;28;20671;-91
2022/01/25 07:28:04;;;;;;;65.37;26.63;;;;;;;-8.47;83.09;95887.53;5082645;28;20258;-91
2022/01/25 07:30:32;;;;;;;59.40;22.83;;;;;;;-8.39;81.96;95887.97;5073279;28;20232;-81
2022/01/25 07:33:05;;;;;;;50.10;22.47;;;;;;;-8.39;83.01;95887.97;5077567;28;20197;-83
2022/01/25 07:35:33;;;;;;;56.13;22.10;;;;;;;-8.35;82.30;95881.09;5088437;28;20205;-88
2022/01/25 07:38:39;;;;;;;54.00;23.27;;;;;;;-8.33;82.41;95879.31;5087014;28;20197;-90
2022/01/25 07:41:08;;;;;;;49.20;21.47;;;;;;;-8.23;82.83;95877.94;5087289;28;20193;-90
2022/01/25 07:43:36;;;;;;;47.43;21.27;;;;;;;-8.16;81.66;95872.53;5088357;28;20205;-78
2022/01/25 07:46:05;;;;;;;45.27;19.43;;;;;;;-8.07;80.59;95894.75;5094456;28;20244;-85
2022/01/25 07:48:33;;;;;;;53.43;21.43;;;;;;;-8.26;81.23;95878.09;5093817;28;20281;-84
2022/01/25 07:51:06;;;;;;;49.43;18.87;;;;;;;-8.20;81.21;95883.66;5090620;28;20205;-83
2022/01/25 07:53:37;;;;;;;49.43;20.20;;;;;;;-8.23;81.10;95870.38;5088013;28;20193;-84
2022/01/25 07:56:06;;;;;;;57.57;23.40;;;;;;;-8.21;82.33;95884.53;5074758;28;20657;-84
2022/01/25 07:58:36;;;;;;;43.17;19.07;;;;;;;-8.08;81.37;95894.84;5084541;28;20204;-85
2022/01/25 08:01:04;;;;;;;33.53;16.00;;;;;;;-8.21;81.84;95883.72;5069543;28;20724;-83
2022/01/25 08:03:41;;;;;;;45.20;19.30;;;;;;;-8.16;83.44;95892.69;5076781;28;20774;-88
2022/01/25 08:06:09;;;;;;;41.17;18.57;;;;;;;-8.29;83.87;95891.69;5071504;28;20446;-85
2022/01/25 08:08:36;;;;;;;42.70;16.67;;;;;;;-8.21;83.55;95891.28;5075391;28;20205;-81
2022/01/25 08:11:04;;;;;;;45.53;19.77;;;;;;;-8.23;83.89;95885.50;5074169;28;20209;-89
2022/01/25 08:13:31;;;;;;;43.93;18.20;;;;;;;-8.21;85.10;95892.09;5073705;28;20724;-89
2022/01/25 08:16:00;;;;;;;42.27;18.50;;;;;;;-8.19;84.53;95882.75;5074035;28;20733;-88
2022/01/25 08:18:27;;;;;;;38.60;17.83;;;;;;;-8.15;83.98;95886.75;5073700;28;20211;-89
2022/01/25 08:20:55;;;;;;;36.30;15.40;;;;;;;-8.14;83.42;95873.25;5075450;28;20213;-88
2022/01/25 08:23:23;;;;;;;47.43;18.17;;;;;;;-8.03;83.16;95876.97;5077300;28;20255;-89
2022/01/25 08:25:52;;;;;;;43.07;18.83;;;;;;;-7.90;83.57;95872.94;5074238;28;20205;-87
2022/01/25 08:28:20;;;;;;;32.23;14.40;;;;;;;-7.89;83.00;95890.53;5074429;28;20315;-88
2022/01/25 08:30:48;;;;;;;33.03;15.00;;;;;;;-7.88;82.53;95884.59;5077683;28;20201;-89
2022/01/25 08:33:18;;;;;;;41.33;16.63;;;;;;;-7.87;83.08;95886.22;5077001;28;20208;-88
2022/01/25 08:35:45;;;;;;;39.83;16.90;;;;;;;-7.82;83.15;95884.25;5075441;28;20189;-89
2022/01/25 08:38:14;;;;;;;45.03;18.93;;;;;;;-7.76;81.14;95876.38;5076249;28;20205;-89
2022/01/25 08:40:42;;;;;;;36.27;16.63;;;;;;;-7.71;81.07;95877.00;5079352;28;20301;-89
2022/01/25 08:43:10;;;;;;;45.80;19.30;;;;;;;-7.78;81.41;95863.03;5080673;28;20211;-90
2022/01/25 08:45:37;;;;;;;34.30;15.63;;;;;;;-7.65;80.17;95870.81;5080839;28;20202;-89
2022/01/25 08:48:05;;;;;;;45.53;17.90;;;;;;;-7.66;80.13;95867.47;5075506;28;20282;-90
2022/01/25 08:50:34;;;;;;;33.60;16.23;;;;;;;-7.80;80.24;95866.53;5074599;28;20205;-91
2022/01/25 08:53:02;;;;;;;38.47;15.87;;;;;;;-7.78;80.48;95862.22;5076079;28;20197;-92
2022/01/25 08:55:31;;;;;;;36.57;15.80;;;;;;;-7.77;81.21;95866.38;5084924;28;20565;-89
2022/01/25 08:57:58;;;;;;;33.27;15.13;;;;;;;-7.72;79.90;95851.84;5075712;28;20197;-89
2022/01/25 09:00:26;;;;;;;44.70;19.37;;;;;;;-7.58;80.18;95859.50;5074032;28;20673;-91
2022/01/25 09:02:55;;;;;;;37.67;16.97;;;;;;;-7.46;78.98;95858.88;5068418;28;20205;-92
2022/01/25 09:05:23;;;;;;;32.60;14.67;;;;;;;-7.78;79.42;95825.22;5089465;28;20571;-92
2022/01/25 09:07:53;;;;;;;38.33;16.47;;;;;;;-7.68;79.39;95849.09;5091596;28;20225;-93
2022/01/25 09:10:21;;;;;;;34.27;14.57;;;;;;;-7.62;80.25;95847.97;5075046;28;20226;-91
2022/01/25 09:12:49;;;;;;;29.07;13.13;;;;;;;-7.55;79.00;95844.22;5080293;28;20213;-82
2022/01/25 09:15:16;;;;;;;28.27;12.93;;;;;;;-7.55;77.71;95839.16;5078488;28;20208;-83
2022/01/25 09:17:45;;;;;;;33.93;14.53;;;;;;;-7.53;78.25;95832.31;5074535;28;20232;-82
2022/01/25 09:20:14;;;;;;;34.87;16.03;;;;;;;-7.32;77.78;95832.91;5074114;28;20576;-82
2022/01/25 09:22:42;;;;;;;37.17;14.63;;;;;;;-7.30;76.89;95839.50;5085168;28;20689;-83
2022/01/25 09:25:13;;;;;;;40.37;16.20;;;;;;;-7.26;77.22;95835.09;5087726;28;20237;-81
2022/01/25 09:27:40;;;;;;;43.13;17.03;;;;;;;-7.26;78.23;95830.06;5084549;28;20687;-80
2022/01/25 09:30:09;;;;;;;35.40;16.53;;;;;;;-7.26;78.37;95840.97;5087943;28;20234;-80
2022/01/25 09:32:36;;;;;;;45.90;17.60;;;;;;;-7.19;77.30;95817.03;5077534;28;20236;-81
2022/01/25 09:35:04;;;;;;;33.13;15.70;;;;;;;-6.95;78.00;95824.97;5090405;28;20235;-80
2022/01/25 09:37:31;;;;;;;39.00;16.53;;;;;;;-6.98;77.40;95828.50;5074332;28;20204;-80
2022/01/25 09:39:58;;;;;;;37.03;16.07;;;;;;;-6.88;76.89;95822.94;5071786;28;20231;-81
2022/01/25 09:42:28;;;;;;;35.27;16.10;;;;;;;-6.78;76.81;95827.38;5073754;28;20248;-80
2022/01/25 09:44:56;;;;;;;35.37;15.83;;;;;;;-6.76;77.08;95820.56;5070632;28;20277;-82
2022/01/25 09:47:23;;;;;;;44.43;17.23;;;;;;;-6.60;75.48;95825.56;5073658;28;20226;-82
2022/01/25 09:49:50;;;;;;;29.00;12.57;;;;;;;-6.48;74.37;95820.66;5071470;28;20214;-82
2022/01/25 09:52:19;;;;;;;30.17;14.17;;;;;;;-6.51;74.01;95804.84;5070576;28;20208;-81
2022/01/25 09:54:56;;;;;;;40.07;16.70;;;;;;;-6.53;74.92;95815.03;5071769;28;20197;-80
2022/01/25 09:57:24;;;;;;;36.43;16.17;;;;;;;-5.81;74.51;95804.06;5075265;28;20203;-80
2022/01/25 09:59:57;;;;;;;31.73;14.43;;;;;;;-4.57;68.42;95808.19;5079758;28;20193;-82
2022/01/25 10:02:45;;;;;;;36.40;15.30;;;;;;;-2.99;61.14;95812.66;5084156;28;20197;-81
2022/01/25 10:05:27;;;;;;;38.63;17.10;;;;;;;-1.85;55.76;95812.03;5071627;28;20212;-80
2022/01/25 10:08:02;;;;;;;31.90;15.43;;;;;;;-0.99;53.42;95807.94;5089776;28;20232;-80
2022/01/25 10:10:31;;;;;;;29.87;15.50;;;;;;;-0.53;50.52;95817.91;5084086;28;20640;-80
2022/01/25 10:13:09;;;;;;;28.13;14.07;;;;;;;-0.71;49.31;95797.19;5089902;28;20417;-80
2022/01/25 10:15:38;;;;;;;31.17;16.33;;;;;;;-0.58;49.71;95804.69;5091627;28;20792;-80
2022/01/25 10:18:06;;;;;;;35.70;16.23;;;;;;;0.46;47.94;95802.97;5077022;28;20201;-81
2022/01/25 10:20:36;;;;;;;32.37;16.00;;;;;;;1.22;46.30;95807.47;5072048;28;20194;-81
2022/01/25 10:23:11;;;;;;;34.63;16.50;;;;;;;1.52;44.82;95804.03;5080568;28;20193;-80
2022/01/25 10:25:40;;;;;;;30.63;15.97;;;;;;;1.20;45.82;95801.69;5093609;28;20583;-80
2022/01/25 10:28:15;;;;;;;37.50;18.30;;;;;;;1.68;44.99;95738.50;5087223;28;20229;-80
2022/01/25 10:30:56;;;;;;;32.67;17.07;;;;;;;3.05;42.65;95793.38;5074749;28;20197;-80
2022/01/25 10:33:28;;;;;;;28.23;15.80;;;;;;;2.89;41.52;95787.25;5074545;28;20225;-81
2022/01/25 10:35:57;;;;;;;35.13;17.43;;;;;;;1.72;43.28;95785.16;5081263;28;20209;-81
2022/01/25 10:38:30;;;;;;;34.87;17.87;;;;;;;0.40;45.35;95772.78;5082691;28;20205;-80
2022/01/25 10:41:00;;;;;;;35.83;17.27;;;;;;;-0.19;46.77;95780.25;5091056;28;20194;-81
2022/01/25 10:43:30;;;;;;;36.13;19.37;;;;;;;-0.18;47.20;95752.06;5093475;28;20223;-80
2022/01/25 10:46:16;;;;;;;35.37;17.40;;;;;;;0.86;46.10;95769.72;5087935;28;20211;-80
2022/01/25 10:48:49;;;;;;;32.60;17.07;;;;;;;1.21;45.11;95779.47;5076424;28;20220;-81
2022/01/25 10:51:20;;;;;;;31.57;16.20;;;;;;;1.38;43.50;95754.03;5085428;28;20201;-82
2022/01/25 10:54:05;;;;;;;35.53;18.50;;;;;;;1.67;44.27;95759.91;5091690;28;20192;-80
2022/01/25 10:56:43;;;;;;;38.10;18.53;;;;;;;2.13;43.08;95759.19;5093535;28;20204;-81
2022/01/25 10:59:16;;;;;;;30.80;15.27;;;;;;;2.28;42.54;95756.97;5085880;28;20204;-79
2022/01/25 11:01:51;;;;;;;26.97;14.67;;;;;;;2.73;41.58;95754.50;5067133;28;20525;-80
2022/01/25 11:04:20;;;;;;;31.47;16.87;;;;;;;2.91;41.47;95737.41;5074497;28;20767;-80
2022/01/25 11:06:55;;;;;;;32.30;16.93;;;;;;;3.20;40.29;95744.91;5092702;28;20214;-80
2022/01/25 11:09:25;;;;;;;35.33;19.10;;;;;;;3.37;40.95;95744.91;5086890;28;20289;-81
2022/01/25 11:11:57;;;;;;;33.13;17.70;;;;;;;3.81;39.26;95744.97;5085081;28;20202;-81
2022/01/25 11:17:12;;;;;;;32.40;17.70;;;;;;;3.07;40.29;95723.91;5073510;28;20199;-81
2022/01/25 11:19:39;;;;;;;28.60;17.27;;;;;;;3.13;40.33;95749.81;5080390;28;20263;-81
2022/01/25 11:22:11;;;;;;;28.33;15.30;;;;;;;3.55;39.70;95742.31;5079754;28;20326;-82
2022/01/25 11:24:40;;;;;;;30.23;15.73;;;;;;;3.32;39.71;95733.44;5093583;28;20724;-82
2022/01/25 11:27:08;;;;;;;26.80;15.83;;;;;;;3.64;39.57;95732.91;5073333;28;20714;-82
2022/01/25 11:29:40;;;;;;;27.47;15.17;;;;;;;4.12;38.84;95738.44;5086447;28;20703;-81
2022/01/25 11:32:15;;;;;;;27.33;15.77;;;;;;;3.80;38.47;95720.19;5074339;28;20192;-82
2022/01/25 11:34:45;;;;;;;28.43;15.93;;;;;;;3.15;39.75;95719.66;5068861;28;20668;-84
2022/01/25 11:37:13;;;;;;;31.43;16.70;;;;;;;3.44;40.09;95709.97;5080623;28;20224;-80
2022/01/25 11:39:44;;;;;;;36.43;17.90;;;;;;;4.15;38.75;95694.41;5079339;28;20201;-80
2022/01/25 11:42:13;;;;;;;32.57;17.17;;;;;;;4.00;38.82;95701.06;5070688;28;20263;-80
2022/01/25 11:44:48;;;;;;;33.13;17.87;;;;;;;4.37;39.45;95698.19;5076010;28;20815;-80
2022/01/25 11:47:18;;;;;;;32.07;16.03;;;;;;;4.95;37.44;95698.25;5075069;28;20224;-80
2022/01/25 11:49:54;;;;;;;29.57;17.33;;;;;;;4.00;37.48;95681.28;5075928;28;20269;-80
2022/01/25 11:52:24;;;;;;;26.53;15.07;;;;;;;4.01;38.52;95682.09;5073035;28;20205;-81
2022/01/25 11:54:54;;;;;;;28.00;16.40;;;;;;;4.43;38.47;95685.53;5074073;28;20217;-91
2022/01/25 11:57:23;;;;;;;25.13;15.07;;;;;;;4.44;37.22;95694.06;5077931;28;20192;-91
2022/01/25 11:59:53;;;;;;;33.03;17.53;;;;;;;4.46;37.92;95689.56;5080641;28;20280;-91
2022/01/25 12:02:40;;;;;;;24.43;15.17;;;;;;;4.65;37.96;95676.41;5074034;28;20279;-90
2022/01/25 12:05:08;;;;;;;30.73;15.73;;;;;;;4.76;36.88;95685.66;5068208;28;20260;-90
2022/01/25 12:07:40;;;;;;;31.97;16.53;;;;;;;5.06;37.15;95683.28;5079662;28;20226;-90
2022/01/25 12:10:32;;;;;;;25.70;15.33;;;;;;;4.28;37.78;95671.63;5080419;28;20206;-90
2022/01/25 12:13:15;;;;;;;28.07;15.97;;;;;;;4.64;36.90;95666.28;5079926;28;20212;-88
2022/01/25 12:16:33;;;;;;;32.97;18.47;;;;;;;4.56;37.16;95657.56;5087096;28;20212;-89
2022/01/25 12:19:47;;;;;;;33.60;18.10;;;;;;;5.17;36.71;95671.88;5073643;28;20732;-90
2022/01/25 12:22:38;;;;;;;27.73;16.00;;;;;;;5.13;36.52;95666.25;5063217;28;20199;-90
2022/01/25 12:25:22;;;;;;;25.07;15.57;;;;;;;5.08;35.50;95640.13;5073068;28;20194;-89
2022/01/25 12:27:57;;;;;;;28.83;15.67;;;;;;;4.64;36.25;95661.97;5072081;28;20581;-89
2022/01/25 12:30:39;;;;;;;32.87;16.97;;;;;;;4.37;37.32;95637.25;5066504;28;20208;-89
2022/01/25 12:33:21;;;;;;;27.97;15.70;;;;;;;4.39;37.17;95612.16;5070028;28;20228;-89
2022/01/25 12:35:54;;;;;;;27.07;15.60;;;;;;;4.06;37.86;95636.16;5074759;28;20210;-89
2022/01/25 12:38:25;;;;;;;30.87;16.00;;;;;;;3.12;38.17;95560.75;5075063;28;20202;-90
2022/01/25 12:41:15;;;;;;;26.20;15.30;;;;;;;4.26;37.73;95637.53;5079238;28;20189;-87
2022/01/25 12:43:44;;;;;;;31.13;16.73;;;;;;;4.54;37.19;95605.44;5081806;28;20229;-89
2022/01/25 12:46:14;;;;;;;39.73;19.60;;;;;;;4.66;37.06;95631.72;5088480;28;20231;-89
2022/01/25 12:48:46;;;;;;;32.27;17.63;;;;;;;4.75;36.84;95627.38;5077972;28;20286;-87
2022/01/25 12:51:17;;;;;;;29.33;16.07;;;;;;;5.00;37.69;95618.72;5083050;28;20197;-88